KTOA

Zamperini Field Airport

Torrance, California, USA
METAR KTOA 182149Z 24013KT 10SM FEW030 21/12 A3001
Observed Flight Rules
Jun-18 @ 21:49 UTC (an hour ago) Visual Flight Rules
Wind Visibility Clouds
240° at 13 knots 10 miles
  • Few at 3,000' AGL
Temperatures Readings
Current 21°C / 70°F
Dewpoint 12°C / 54°F
Humidity 57%
Altimeter 30.01" Hg
Pressure 1016 hPa
Elevation 31
METAR KTOA 182149Z 24013KT 10SM FEW030 21/12 A3001
Observed Flight Rules
Jun-18 @ 21:49 UTC
(an hour ago)
VFR
Wind Visibility
240° at 13 knots 10 miles
Clouds
  • Few at 3,000' AGL
Temperature Dewpoint
21°C / 70°F 12°C / 54°F
Humidity Altimeter Pressure
57% 30.01" Hg 1016 hPa